sensor_id;sensor_type;location;lat;lon;timestamp;pressure;altitude;pressure_sealevel;temperature
42197;BMP280;27866;48.146;17.098;2023-04-23T00:03:45;99185.69;;;16.64
42197;BMP280;27866;48.146;17.098;2023-04-23T00:07:59;99188.38;;;16.55
42197;BMP280;27866;48.146;17.098;2023-04-23T00:12:12;99187.81;;;16.44
42197;BMP280;27866;48.146;17.098;2023-04-23T00:16:24;99181.06;;;16.34
42197;BMP280;27866;48.146;17.098;2023-04-23T00:20:36;99168.78;;;16.26
42197;BMP280;27866;48.146;17.098;2023-04-23T00:24:47;99183.56;;;16.18
42197;BMP280;27866;48.146;17.098;2023-04-23T00:28:58;99181.03;;;16.09
42197;BMP280;27866;48.146;17.098;2023-04-23T00:33:10;99174.09;;;16.00
42197;BMP280;27866;48.146;17.098;2023-04-23T00:37:21;99177.09;;;15.88
42197;BMP280;27866;48.146;17.098;2023-04-23T00:41:33;99166.25;;;15.83
42197;BMP280;27866;48.146;17.098;2023-04-23T00:45:44;99174.81;;;15.76
42197;BMP280;27866;48.146;17.098;2023-04-23T00:49:58;99167.41;;;15.64
42197;BMP280;27866;48.146;17.098;2023-04-23T00:54:09;99182.56;;;15.51
42197;BMP280;27866;48.146;17.098;2023-04-23T00:58:21;99175.66;;;15.43
42197;BMP280;27866;48.146;17.098;2023-04-23T01:02:34;99168.56;;;15.36
42197;BMP280;27866;48.146;17.098;2023-04-23T01:06:47;99179.44;;;15.31
42197;BMP280;27866;48.146;17.098;2023-04-23T01:10:59;99175.91;;;15.23
42197;BMP280;27866;48.146;17.098;2023-04-23T01:15:12;99173.59;;;15.20
42197;BMP280;27866;48.146;17.098;2023-04-23T01:19:24;99175.59;;;15.09
42197;BMP280;27866;48.146;17.098;2023-04-23T01:23:36;99176.59;;;14.99
42197;BMP280;27866;48.146;17.098;2023-04-23T01:27:47;99178.44;;;14.89
42197;BMP280;27866;48.146;17.098;2023-04-23T01:31:59;99166.66;;;14.85
42197;BMP280;27866;48.146;17.098;2023-04-23T01:36:10;99174.75;;;14.82
42197;BMP280;27866;48.146;17.098;2023-04-23T01:40:22;99169.56;;;14.82
42197;BMP280;27866;48.146;17.098;2023-04-23T01:44:34;99176.13;;;14.86
42197;BMP280;27866;48.146;17.098;2023-04-23T01:48:45;99174.88;;;14.90
42197;BMP280;27866;48.146;17.098;2023-04-23T01:52:56;99175.13;;;14.87
42197;BMP280;27866;48.146;17.098;2023-04-23T01:57:09;99174.88;;;14.81
42197;BMP280;27866;48.146;17.098;2023-04-23T02:01:20;99180.38;;;14.78
42197;BMP280;27866;48.146;17.098;2023-04-23T02:05:34;99178.19;;;14.74
42197;BMP280;27866;48.146;17.098;2023-04-23T02:09:45;99165.72;;;14.68
42197;BMP280;27866;48.146;17.098;2023-04-23T02:13:57;99166.41;;;14.70
42197;BMP280;27866;48.146;17.098;2023-04-23T02:18:08;99177.28;;;14.65
42197;BMP280;27866;48.146;17.098;2023-04-23T02:22:21;99175.34;;;14.67
42197;BMP280;27866;48.146;17.098;2023-04-23T02:26:35;99171.22;;;14.65
42197;BMP280;27866;48.146;17.098;2023-04-23T02:30:46;99168.63;;;14.65
42197;BMP280;27866;48.146;17.098;2023-04-23T02:34:57;99164.97;;;14.58
42197;BMP280;27866;48.146;17.098;2023-04-23T02:39:09;99170.44;;;14.55
42197;BMP280;27866;48.146;17.098;2023-04-23T02:43:20;99164.66;;;14.61
42197;BMP280;27866;48.146;17.098;2023-04-23T02:47:31;99170.44;;;14.55
42197;BMP280;27866;48.146;17.098;2023-04-23T02:51:43;99171.28;;;14.56
42197;BMP280;27866;48.146;17.098;2023-04-23T02:55:54;99171.00;;;14.49
42197;BMP280;27866;48.146;17.098;2023-04-23T03:00:07;99168.81;;;14.45
42197;BMP280;27866;48.146;17.098;2023-04-23T03:04:24;99180.63;;;14.40
42197;BMP280;27866;48.146;17.098;2023-04-23T03:08:36;99176.53;;;14.47
42197;BMP280;27866;48.146;17.098;2023-04-23T03:12:47;99179.50;;;14.51
42197;BMP280;27866;48.146;17.098;2023-04-23T03:16:59;99162.53;;;14.48
42197;BMP280;27866;48.146;17.098;2023-04-23T03:21:11;99164.28;;;14.47
42197;BMP280;27866;48.146;17.098;2023-04-23T03:25:22;99170.38;;;14.38
42197;BMP280;27866;48.146;17.098;2023-04-23T03:29:36;99156.28;;;14.32
42197;BMP280;27866;48.146;17.098;2023-04-23T03:33:47;99169.72;;;14.27
42197;BMP280;27866;48.146;17.098;2023-04-23T03:38:05;99166.72;;;14.22
42197;BMP280;27866;48.146;17.098;2023-04-23T03:42:16;99166.84;;;14.21
42197;BMP280;27866;48.146;17.098;2023-04-23T03:46:28;99170.84;;;14.16
42197;BMP280;27866;48.146;17.098;2023-04-23T03:50:39;99173.59;;;14.14
42197;BMP280;27866;48.146;17.098;2023-04-23T03:55:05;99175.34;;;14.14
42197;BMP280;27866;48.146;17.098;2023-04-23T03:59:23;99178.09;;;14.12
42197;BMP280;27866;48.146;17.098;2023-04-23T04:03:37;99177.69;;;14.17
42197;BMP280;27866;48.146;17.098;2023-04-23T04:07:48;99172.50;;;14.17
42197;BMP280;27866;48.146;17.098;2023-04-23T04:12:01;99185.63;;;14.15
42197;BMP280;27866;48.146;17.098;2023-04-23T04:16:13;99183.59;;;14.19
42197;BMP280;27866;48.146;17.098;2023-04-23T04:20:25;99180.53;;;14.23
42197;BMP280;27866;48.146;17.098;2023-04-23T04:24:38;99179.84;;;14.30
42197;BMP280;27866;48.146;17.098;2023-04-23T04:28:51;99177.81;;;14.34
42197;BMP280;27866;48.146;17.098;2023-04-23T04:33:03;99178.19;;;14.38
42197;BMP280;27866;48.146;17.098;2023-04-23T04:37:14;99193.09;;;14.46
42197;BMP280;27866;48.146;17.098;2023-04-23T04:41:26;99188.31;;;14.50
42197;BMP280;27866;48.146;17.098;2023-04-23T04:45:37;99197.19;;;14.57
42197;BMP280;27866;48.146;17.098;2023-04-23T04:49:49;99195.25;;;14.59
42197;BMP280;27866;48.146;17.098;2023-04-23T04:54:00;99198.50;;;14.70
42197;BMP280;27866;48.146;17.098;2023-04-23T04:58:11;99195.84;;;14.79
42197;BMP280;27866;48.146;17.098;2023-04-23T05:02:22;99199.00;;;14.92
42197;BMP280;27866;48.146;17.098;2023-04-23T05:06:34;99201.63;;;14.92
42197;BMP280;27866;48.146;17.098;2023-04-23T05:10:45;99198.81;;;15.03
42197;BMP280;27866;48.146;17.098;2023-04-23T05:14:56;99204.38;;;15.17
42197;BMP280;27866;48.146;17.098;2023-04-23T05:19:08;99214.75;;;15.26
42197;BMP280;27866;48.146;17.098;2023-04-23T05:23:19;99213.19;;;15.33
42197;BMP280;27866;48.146;17.098;2023-04-23T05:27:30;99203.25;;;15.45
42197;BMP280;27866;48.146;17.098;2023-04-23T05:31:41;99214.41;;;15.55
42197;BMP280;27866;48.146;17.098;2023-04-23T05:35:53;99207.94;;;15.76
42197;BMP280;27866;48.146;17.098;2023-04-23T05:40:05;99205.41;;;15.83
42197;BMP280;27866;48.146;17.098;2023-04-23T05:44:17;99205.59;;;15.99
42197;BMP280;27866;48.146;17.098;2023-04-23T05:48:28;99209.28;;;16.13
42197;BMP280;27866;48.146;17.098;2023-04-23T05:52:40;99214.66;;;16.29
42197;BMP280;27866;48.146;17.098;2023-04-23T05:56:51;99205.44;;;16.42
42197;BMP280;27866;48.146;17.098;2023-04-23T06:01:02;99202.69;;;16.68
42197;BMP280;27866;48.146;17.098;2023-04-23T06:05:13;99209.34;;;16.87
42197;BMP280;27866;48.146;17.098;2023-04-23T06:09:24;99211.75;;;17.13
42197;BMP280;27866;48.146;17.098;2023-04-23T06:13:36;99217.41;;;17.34
42197;BMP280;27866;48.146;17.098;2023-04-23T06:17:50;99214.19;;;17.55
42197;BMP280;27866;48.146;17.098;2023-04-23T06:22:01;99210.72;;;17.87
42197;BMP280;27866;48.146;17.098;2023-04-23T06:26:13;99208.09;;;18.26
42197;BMP280;27866;48.146;17.098;2023-04-23T06:30:24;99202.53;;;18.59
42197;BMP280;27866;48.146;17.098;2023-04-23T06:34:37;99213.69;;;19.88
42197;BMP280;27866;48.146;17.098;2023-04-23T06:38:48;99198.66;;;26.53
42197;BMP280;27866;48.146;17.098;2023-04-23T06:42:59;99201.00;;;28.92
42197;BMP280;27866;48.146;17.098;2023-04-23T06:47:43;99196.75;;;30.38
42197;BMP280;27866;48.146;17.098;2023-04-23T06:51:54;99193.69;;;30.30
42197;BMP280;27866;48.146;17.098;2023-04-23T06:56:07;99185.66;;;31.42
42197;BMP280;27866;48.146;17.098;2023-04-23T07:00:19;99183.19;;;32.19
42197;BMP280;27866;48.146;17.098;2023-04-23T07:04:31;99186.50;;;32.56
42197;BMP280;27866;48.146;17.098;2023-04-23T07:08:43;99179.38;;;33.37
42197;BMP280;27866;48.146;17.098;2023-04-23T07:12:55;99183.22;;;33.45
42197;BMP280;27866;48.146;17.098;2023-04-23T07:17:06;99169.53;;;31.37
42197;BMP280;27866;48.146;17.098;2023-04-23T07:21:17;99178.50;;;31.26
42197;BMP280;27866;48.146;17.098;2023-04-23T07:25:29;99181.59;;;33.45
42197;BMP280;27866;48.146;17.098;2023-04-23T07:29:41;99175.59;;;37.17
42197;BMP280;27866;48.146;17.098;2023-04-23T07:33:53;99170.22;;;36.47
42197;BMP280;27866;48.146;17.098;2023-04-23T07:38:06;99167.78;;;34.70
42197;BMP280;27866;48.146;17.098;2023-04-23T07:42:17;99171.28;;;34.99
42197;BMP280;27866;48.146;17.098;2023-04-23T07:46:28;99147.63;;;33.69
42197;BMP280;27866;48.146;17.098;2023-04-23T07:50:39;99162.66;;;29.26
42197;BMP280;27866;48.146;17.098;2023-04-23T07:54:51;99154.22;;;27.24
42197;BMP280;27866;48.146;17.098;2023-04-23T07:59:02;99166.75;;;30.80
42197;BMP280;27866;48.146;17.098;2023-04-23T08:03:15;99172.53;;;34.29
42197;BMP280;27866;48.146;17.098;2023-04-23T08:07:26;99167.91;;;38.19
42197;BMP280;27866;48.146;17.098;2023-04-23T08:11:37;99139.66;;;33.39
42197;BMP280;27866;48.146;17.098;2023-04-23T08:15:48;99137.75;;;30.13
42197;BMP280;27866;48.146;17.098;2023-04-23T08:20:03;99146.38;;;31.11
42197;BMP280;27866;48.146;17.098;2023-04-23T08:24:16;99148.53;;;33.39
42197;BMP280;27866;48.146;17.098;2023-04-23T08:28:27;99143.03;;;33.20
42197;BMP280;27866;48.146;17.098;2023-04-23T08:32:39;99151.00;;;35.35
42197;BMP280;27866;48.146;17.098;2023-04-23T08:36:50;99132.94;;;35.41
42197;BMP280;27866;48.146;17.098;2023-04-23T08:41:05;99132.47;;;35.95
42197;BMP280;27866;48.146;17.098;2023-04-23T08:45:17;99118.28;;;35.76
42197;BMP280;27866;48.146;17.098;2023-04-23T08:49:33;99132.00;;;34.64
42197;BMP280;27866;48.146;17.098;2023-04-23T08:53:50;99128.84;;;37.16
42197;BMP280;27866;48.146;17.098;2023-04-23T08:58:02;99134.72;;;36.96
42197;BMP280;27866;48.146;17.098;2023-04-23T09:02:16;99125.09;;;38.57
42197;BMP280;27866;48.146;17.098;2023-04-23T09:06:29;99125.66;;;37.37
42197;BMP280;27866;48.146;17.098;2023-04-23T09:10:43;99103.41;;;34.97
42197;BMP280;27866;48.146;17.098;2023-04-23T09:14:55;99100.69;;;37.45
42197;BMP280;27866;48.146;17.098;2023-04-23T09:19:09;99098.88;;;37.18
42197;BMP280;27866;48.146;17.098;2023-04-23T09:23:22;99100.13;;;36.70
42197;BMP280;27866;48.146;17.098;2023-04-23T09:27:34;99085.19;;;36.82
42197;BMP280;27866;48.146;17.098;2023-04-23T09:31:50;99089.75;;;37.55
42197;BMP280;27866;48.146;17.098;2023-04-23T09:36:09;99084.09;;;38.81
42197;BMP280;27866;48.146;17.098;2023-04-23T09:40:24;99081.88;;;38.34
42197;BMP280;27866;48.146;17.098;2023-04-23T09:44:37;99072.69;;;37.99
42197;BMP280;27866;48.146;17.098;2023-04-23T09:48:48;99076.75;;;37.11
42197;BMP280;27866;48.146;17.098;2023-04-23T09:53:00;99067.09;;;37.51
42197;BMP280;27866;48.146;17.098;2023-04-23T09:57:12;99071.25;;;38.07
42197;BMP280;27866;48.146;17.098;2023-04-23T10:01:29;99070.63;;;37.74
42197;BMP280;27866;48.146;17.098;2023-04-23T10:05:42;99059.13;;;35.98
42197;BMP280;27866;48.146;17.098;2023-04-23T10:09:53;99048.75;;;36.15
42197;BMP280;27866;48.146;17.098;2023-04-23T10:14:05;99031.94;;;35.95
42197;BMP280;27866;48.146;17.098;2023-04-23T10:18:17;99029.66;;;35.08
42197;BMP280;27866;48.146;17.098;2023-04-23T10:22:30;99035.84;;;35.08
42197;BMP280;27866;48.146;17.098;2023-04-23T10:26:43;99032.03;;;33.59
42197;BMP280;27866;48.146;17.098;2023-04-23T10:30:56;99028.75;;;36.81
42197;BMP280;27866;48.146;17.098;2023-04-23T10:35:09;99030.16;;;39.11
42197;BMP280;27866;48.146;17.098;2023-04-23T10:39:21;99016.41;;;40.49
42197;BMP280;27866;48.146;17.098;2023-04-23T10:43:32;99023.94;;;39.97
42197;BMP280;27866;48.146;17.098;2023-04-23T10:47:44;99026.72;;;39.05
42197;BMP280;27866;48.146;17.098;2023-04-23T10:52:14;99007.06;;;39.00
42197;BMP280;27866;48.146;17.098;2023-04-23T10:56:27;99000.56;;;37.37
42197;BMP280;27866;48.146;17.098;2023-04-23T11:00:44;99006.66;;;36.51
42197;BMP280;27866;48.146;17.098;2023-04-23T11:04:57;98998.22;;;35.50
42197;BMP280;27866;48.146;17.098;2023-04-23T11:09:44;98987.22;;;34.76
42197;BMP280;27866;48.146;17.098;2023-04-23T11:13:55;99001.47;;;34.77
42197;BMP280;27866;48.146;17.098;2023-04-23T11:18:07;98996.28;;;35.04
42197;BMP280;27866;48.146;17.098;2023-04-23T11:22:20;98990.78;;;36.12
42197;BMP280;27866;48.146;17.098;2023-04-23T11:26:31;98997.47;;;38.32
42197;BMP280;27866;48.146;17.098;2023-04-23T11:30:49;98967.22;;;37.82
42197;BMP280;27866;48.146;17.098;2023-04-23T11:35:04;98979.09;;;37.27
42197;BMP280;27866;48.146;17.098;2023-04-23T11:39:17;98971.56;;;38.14
42197;BMP280;27866;48.146;17.098;2023-04-23T11:43:29;98974.38;;;39.23
42197;BMP280;27866;48.146;17.098;2023-04-23T11:47:40;98973.75;;;40.07
42197;BMP280;27866;48.146;17.098;2023-04-23T11:51:51;98967.34;;;40.46
42197;BMP280;27866;48.146;17.098;2023-04-23T11:56:03;98963.59;;;39.44
42197;BMP280;27866;48.146;17.098;2023-04-23T12:00:17;98958.16;;;39.44
42197;BMP280;27866;48.146;17.098;2023-04-23T12:04:30;98969.28;;;38.51
42197;BMP280;27866;48.146;17.098;2023-04-23T12:08:41;98956.47;;;39.48
42197;BMP280;27866;48.146;17.098;2023-04-23T12:12:57;98952.84;;;40.50
42197;BMP280;27866;48.146;17.098;2023-04-23T12:17:10;98947.81;;;42.15
42197;BMP280;27866;48.146;17.098;2023-04-23T12:21:21;98946.72;;;42.08
42197;BMP280;27866;48.146;17.098;2023-04-23T12:25:34;98944.97;;;42.72
42197;BMP280;27866;48.146;17.098;2023-04-23T12:29:46;98939.78;;;42.26
42197;BMP280;27866;48.146;17.098;2023-04-23T12:34:02;98930.94;;;41.31
42197;BMP280;27866;48.146;17.098;2023-04-23T12:38:25;98933.66;;;41.31
42197;BMP280;27866;48.146;17.098;2023-04-23T12:42:37;98917.44;;;40.63
42197;BMP280;27866;48.146;17.098;2023-04-23T12:46:59;98917.88;;;38.20
42197;BMP280;27866;48.146;17.098;2023-04-23T12:51:13;98922.22;;;35.11
42197;BMP280;27866;48.146;17.098;2023-04-23T12:55:24;98916.44;;;35.27
42197;BMP280;27866;48.146;17.098;2023-04-23T12:59:35;98919.66;;;35.76
42197;BMP280;27866;48.146;17.098;2023-04-23T13:03:47;98915.78;;;34.17
42197;BMP280;27866;48.146;17.098;2023-04-23T13:07:58;98904.50;;;33.91
42197;BMP280;27866;48.146;17.098;2023-04-23T13:12:09;98900.75;;;33.68
42197;BMP280;27866;48.146;17.098;2023-04-23T13:16:21;98895.09;;;33.98
42197;BMP280;27866;48.146;17.098;2023-04-23T13:20:32;98898.84;;;33.73
42197;BMP280;27866;48.146;17.098;2023-04-23T13:24:43;98895.91;;;33.79
42197;BMP280;27866;48.146;17.098;2023-04-23T13:28:55;98888.47;;;34.67
42197;BMP280;27866;48.146;17.098;2023-04-23T13:33:06;98886.22;;;34.12
42197;BMP280;27866;48.146;17.098;2023-04-23T13:37:17;98866.59;;;33.49
42197;BMP280;27866;48.146;17.098;2023-04-23T13:41:29;98874.44;;;33.70
42197;BMP280;27866;48.146;17.098;2023-04-23T13:45:40;98860.28;;;34.64
42197;BMP280;27866;48.146;17.098;2023-04-23T13:49:51;98855.38;;;34.71
42197;BMP280;27866;48.146;17.098;2023-04-23T13:54:03;98850.81;;;35.23
42197;BMP280;27866;48.146;17.098;2023-04-23T13:58:14;98846.75;;;36.64
42197;BMP280;27866;48.146;17.098;2023-04-23T14:02:26;98845.50;;;36.79
42197;BMP280;27866;48.146;17.098;2023-04-23T14:06:37;98840.94;;;36.07
42197;BMP280;27866;48.146;17.098;2023-04-23T14:10:48;98842.53;;;36.08
42197;BMP280;27866;48.146;17.098;2023-04-23T14:15:00;98834.81;;;36.47
42197;BMP280;27866;48.146;17.098;2023-04-23T14:19:12;98823.31;;;35.26
42197;BMP280;27866;48.146;17.098;2023-04-23T14:27:45;98812.22;;;34.29
42197;BMP280;27866;48.146;17.098;2023-04-23T14:31:59;98808.38;;;34.59
42197;BMP280;27866;48.146;17.098;2023-04-23T14:36:11;98806.75;;;35.05
42197;BMP280;27866;48.146;17.098;2023-04-23T14:40:22;98812.66;;;35.12
42197;BMP280;27866;48.146;17.098;2023-04-23T14:44:34;98804.06;;;34.58
42197;BMP280;27866;48.146;17.098;2023-04-23T14:48:45;98798.81;;;34.24
42197;BMP280;27866;48.146;17.098;2023-04-23T14:52:56;98795.78;;;34.45
42197;BMP280;27866;48.146;17.098;2023-04-23T14:57:08;98785.13;;;34.16
42197;BMP280;27866;48.146;17.098;2023-04-23T15:01:20;98780.59;;;32.72
42197;BMP280;27866;48.146;17.098;2023-04-23T15:05:31;98776.69;;;31.79
42197;BMP280;27866;48.146;17.098;2023-04-23T15:09:43;98790.03;;;31.39
42197;BMP280;27866;48.146;17.098;2023-04-23T15:18:35;98771.41;;;30.67
42197;BMP280;27866;48.146;17.098;2023-04-23T15:22:46;98771.63;;;29.98
42197;BMP280;27866;48.146;17.098;2023-04-23T15:26:58;98778.63;;;29.15
42197;BMP280;27866;48.146;17.098;2023-04-23T15:31:11;98771.81;;;28.64
42197;BMP280;27866;48.146;17.098;2023-04-23T15:35:24;98774.31;;;28.17
42197;BMP280;27866;48.146;17.098;2023-04-23T15:39:36;98770.91;;;27.60
42197;BMP280;27866;48.146;17.098;2023-04-23T15:43:47;98767.66;;;27.36
42197;BMP280;27866;48.146;17.098;2023-04-23T15:48:00;98759.94;;;27.24
42197;BMP280;27866;48.146;17.098;2023-04-23T15:52:11;98762.59;;;27.02
42197;BMP280;27866;48.146;17.098;2023-04-23T15:56:22;98769.91;;;26.88
42197;BMP280;27866;48.146;17.098;2023-04-23T16:00:34;98756.25;;;26.74
42197;BMP280;27866;48.146;17.098;2023-04-23T16:04:45;98759.19;;;26.55
42197;BMP280;27866;48.146;17.098;2023-04-23T16:08:57;98758.38;;;26.55
42197;BMP280;27866;48.146;17.098;2023-04-23T16:13:08;98745.53;;;26.41
42197;BMP280;27866;48.146;17.098;2023-04-23T16:17:20;98748.19;;;26.23
42197;BMP280;27866;48.146;17.098;2023-04-23T16:21:31;98752.50;;;26.07
42197;BMP280;27866;48.146;17.098;2023-04-23T16:25:43;98748.69;;;25.85
42197;BMP280;27866;48.146;17.098;2023-04-23T16:29:54;98744.81;;;25.71
42197;BMP280;27866;48.146;17.098;2023-04-23T16:34:05;98748.66;;;25.51
42197;BMP280;27866;48.146;17.098;2023-04-23T16:38:17;98747.16;;;25.37
42197;BMP280;27866;48.146;17.098;2023-04-23T16:42:28;98742.22;;;25.23
42197;BMP280;27866;48.146;17.098;2023-04-23T16:46:39;98742.47;;;25.22
42197;BMP280;27866;48.146;17.098;2023-04-23T16:50:51;98735.59;;;25.14
42197;BMP280;27866;48.146;17.098;2023-04-23T16:55:02;98734.25;;;24.99
42197;BMP280;27866;48.146;17.098;2023-04-23T16:59:15;98732.09;;;24.90
42197;BMP280;27866;48.146;17.098;2023-04-23T17:03:26;98733.47;;;24.75
42197;BMP280;27866;48.146;17.098;2023-04-23T17:07:37;98733.97;;;24.60
42197;BMP280;27866;48.146;17.098;2023-04-23T17:11:50;98730.84;;;24.45
42197;BMP280;27866;48.146;17.098;2023-04-23T17:16:02;98725.00;;;24.31
42197;BMP280;27866;48.146;17.098;2023-04-23T17:20:13;98725.94;;;24.12
42197;BMP280;27866;48.146;17.098;2023-04-23T17:24:25;98728.47;;;23.95
42197;BMP280;27866;48.146;17.098;2023-04-23T17:28:36;98724.47;;;23.80
42197;BMP280;27866;48.146;17.098;2023-04-23T17:32:50;98726.34;;;23.54
42197;BMP280;27866;48.146;17.098;2023-04-23T17:37:01;98730.25;;;23.46
42197;BMP280;27866;48.146;17.098;2023-04-23T17:41:12;98725.59;;;23.35
42197;BMP280;27866;48.146;17.098;2023-04-23T17:45:24;98725.63;;;23.23
42197;BMP280;27866;48.146;17.098;2023-04-23T17:49:35;98720.41;;;23.10
42197;BMP280;27866;48.146;17.098;2023-04-23T17:53:47;98717.72;;;22.97
42197;BMP280;27866;48.146;17.098;2023-04-23T17:58:00;98726.06;;;22.88
42197;BMP280;27866;48.146;17.098;2023-04-23T18:02:15;98727.06;;;22.75
42197;BMP280;27866;48.146;17.098;2023-04-23T18:06:26;98730.34;;;22.70
42197;BMP280;27866;48.146;17.098;2023-04-23T18:10:38;98733.56;;;22.60
42197;BMP280;27866;48.146;17.098;2023-04-23T18:14:49;98734.78;;;22.51
42197;BMP280;27866;48.146;17.098;2023-04-23T18:19:00;98737.78;;;22.35
42197;BMP280;27866;48.146;17.098;2023-04-23T18:23:11;98739.59;;;22.35
42197;BMP280;27866;48.146;17.098;2023-04-23T18:27:24;98735.41;;;22.40
42197;BMP280;27866;48.146;17.098;2023-04-23T18:31:36;98743.09;;;22.42
42197;BMP280;27866;48.146;17.098;2023-04-23T18:35:47;98738.19;;;22.39
42197;BMP280;27866;48.146;17.098;2023-04-23T18:39:59;98744.09;;;22.35
42197;BMP280;27866;48.146;17.098;2023-04-23T18:44:10;98756.03;;;22.31
42197;BMP280;27866;48.146;17.098;2023-04-23T18:52:44;98746.44;;;22.11
42197;BMP280;27866;48.146;17.098;2023-04-23T18:56:55;98754.53;;;21.97
42197;BMP280;27866;48.146;17.098;2023-04-23T19:01:07;98755.91;;;21.87
42197;BMP280;27866;48.146;17.098;2023-04-23T19:05:19;98750.59;;;21.74
42197;BMP280;27866;48.146;17.098;2023-04-23T19:09:30;98753.81;;;21.70
42197;BMP280;27866;48.146;17.098;2023-04-23T19:13:41;98750.94;;;21.65
42197;BMP280;27866;48.146;17.098;2023-04-23T19:17:53;98758.53;;;21.54
42197;BMP280;27866;48.146;17.098;2023-04-23T19:22:04;98762.16;;;21.47
42197;BMP280;27866;48.146;17.098;2023-04-23T19:26:15;98758.47;;;21.41
42197;BMP280;27866;48.146;17.098;2023-04-23T19:30:27;98761.47;;;21.32
42197;BMP280;27866;48.146;17.098;2023-04-23T19:34:38;98755.13;;;21.20
42197;BMP280;27866;48.146;17.098;2023-04-23T19:38:49;98742.91;;;21.13
42197;BMP280;27866;48.146;17.098;2023-04-23T19:43:01;98747.50;;;21.05
42197;BMP280;27866;48.146;17.098;2023-04-23T19:47:15;98744.75;;;20.92
42197;BMP280;27866;48.146;17.098;2023-04-23T19:51:28;98733.81;;;20.89
42197;BMP280;27866;48.146;17.098;2023-04-23T19:55:42;98740.88;;;20.89
42197;BMP280;27866;48.146;17.098;2023-04-23T19:59:53;98732.53;;;21.05
42197;BMP280;27866;48.146;17.098;2023-04-23T20:04:05;98742.56;;;21.22
42197;BMP280;27866;48.146;17.098;2023-04-23T20:08:19;98743.03;;;21.32
42197;BMP280;27866;48.146;17.098;2023-04-23T20:12:39;98746.97;;;21.42
42197;BMP280;27866;48.146;17.098;2023-04-23T20:16:50;98742.31;;;21.44
42197;BMP280;27866;48.146;17.098;2023-04-23T20:21:02;98742.09;;;21.46
42197;BMP280;27866;48.146;17.098;2023-04-23T20:25:14;98744.75;;;21.46
42197;BMP280;27866;48.146;17.098;2023-04-23T20:29:25;98739.00;;;21.36
42197;BMP280;27866;48.146;17.098;2023-04-23T20:33:37;98752.28;;;21.22
42197;BMP280;27866;48.146;17.098;2023-04-23T20:37:48;98738.38;;;21.01
42197;BMP280;27866;48.146;17.098;2023-04-23T20:42:03;98758.91;;;20.91
42197;BMP280;27866;48.146;17.098;2023-04-23T20:46:15;98753.38;;;21.01
42197;BMP280;27866;48.146;17.098;2023-04-23T20:50:26;98759.47;;;21.07
42197;BMP280;27866;48.146;17.098;2023-04-23T20:54:37;98752.78;;;21.05
42197;BMP280;27866;48.146;17.098;2023-04-23T20:58:48;98746.53;;;21.06
42197;BMP280;27866;48.146;17.098;2023-04-23T21:03:00;98750.91;;;20.99
42197;BMP280;27866;48.146;17.098;2023-04-23T21:07:11;98758.06;;;20.85
42197;BMP280;27866;48.146;17.098;2023-04-23T21:11:22;98760.97;;;20.69
42197;BMP280;27866;48.146;17.098;2023-04-23T21:15:34;98788.78;;;20.37
42197;BMP280;27866;48.146;17.098;2023-04-23T21:19:46;98794.47;;;18.58
42197;BMP280;27866;48.146;17.098;2023-04-23T21:23:58;98799.56;;;17.79
42197;BMP280;27866;48.146;17.098;2023-04-23T21:28:12;98801.84;;;17.22
42197;BMP280;27866;48.146;17.098;2023-04-23T21:32:25;98795.50;;;17.16
42197;BMP280;27866;48.146;17.098;2023-04-23T21:36:37;98779.63;;;17.18
42197;BMP280;27866;48.146;17.098;2023-04-23T21:40:48;98762.59;;;17.29
42197;BMP280;27866;48.146;17.098;2023-04-23T21:44:59;98769.94;;;17.34
42197;BMP280;27866;48.146;17.098;2023-04-23T21:49:10;98758.69;;;17.18
42197;BMP280;27866;48.146;17.098;2023-04-23T21:53:21;98756.19;;;17.32
42197;BMP280;27866;48.146;17.098;2023-04-23T21:57:33;98760.41;;;17.40
42197;BMP280;27866;48.146;17.098;2023-04-23T22:01:45;98758.78;;;17.40
42197;BMP280;27866;48.146;17.098;2023-04-23T22:05:56;98760.19;;;17.50
42197;BMP280;27866;48.146;17.098;2023-04-23T22:10:10;98758.03;;;17.61
42197;BMP280;27866;48.146;17.098;2023-04-23T22:14:21;98743.00;;;17.55
42197;BMP280;27866;48.146;17.098;2023-04-23T22:18:32;98718.13;;;17.59
42197;BMP280;27866;48.146;17.098;2023-04-23T22:22:45;98713.38;;;17.62
42197;BMP280;27866;48.146;17.098;2023-04-23T22:26:56;98700.44;;;17.61
42197;BMP280;27866;48.146;17.098;2023-04-23T22:31:09;98694.56;;;17.59
42197;BMP280;27866;48.146;17.098;2023-04-23T22:35:20;98705.34;;;17.64
42197;BMP280;27866;48.146;17.098;2023-04-23T22:39:31;98701.38;;;17.68
42197;BMP280;27866;48.146;17.098;2023-04-23T22:43:43;98694.88;;;17.64
42197;BMP280;27866;48.146;17.098;2023-04-23T22:47:54;98690.47;;;17.64
42197;BMP280;27866;48.146;17.098;2023-04-23T22:52:05;98679.44;;;17.68
42197;BMP280;27866;48.146;17.098;2023-04-23T22:56:18;98676.81;;;17.76
42197;BMP280;27866;48.146;17.098;2023-04-23T23:00:29;98673.22;;;17.77
42197;BMP280;27866;48.146;17.098;2023-04-23T23:04:41;98658.59;;;17.83
42197;BMP280;27866;48.146;17.098;2023-04-23T23:08:52;98651.53;;;17.91
42197;BMP280;27866;48.146;17.098;2023-04-23T23:13:03;98647.63;;;17.87
42197;BMP280;27866;48.146;17.098;2023-04-23T23:17:15;98633.00;;;17.92
42197;BMP280;27866;48.146;17.098;2023-04-23T23:21:26;98647.53;;;17.95
42197;BMP280;27866;48.146;17.098;2023-04-23T23:25:37;98638.94;;;17.86
42197;BMP280;27866;48.146;17.098;2023-04-23T23:29:48;98630.91;;;17.88
42197;BMP280;27866;48.146;17.098;2023-04-23T23:34:00;98628.09;;;17.89
42197;BMP280;27866;48.146;17.098;2023-04-23T23:38:11;98619.78;;;17.86
42197;BMP280;27866;48.146;17.098;2023-04-23T23:42:22;98623.69;;;17.90
42197;BMP280;27866;48.146;17.098;2023-04-23T23:46:34;98620.78;;;17.85
42197;BMP280;27866;48.146;17.098;2023-04-23T23:50:45;98615.63;;;17.77
42197;BMP280;27866;48.146;17.098;2023-04-23T23:54:56;98609.03;;;17.81
42197;BMP280;27866;48.146;17.098;2023-04-23T23:59:08;98613.63;;;17.79
